.
WxDataArchive / Data Records for 2013-09-12
2013-09-11 September 2013 2013-09-13

Data Records for Thursday, 12 September 2013

Time	Temp	Chill	HIndex	Humid	Dewpt	 Wind 	HiWind	WindDir	Rain 	Barom 
-----	----	-----	------	-----	-----	------	------	-------	-----	----- 
00:00	73.9	73.9	73.9	83	68.4	0	0	---	0.00	29.951 
00:05	73.9	73.9	73.9	83	68.4	0	0	---	0.00	29.951 
00:10	73.7	73.7	73.7	83	68.2	0	0	---	0.00	29.951 
00:15	73.7	73.7	73.7	83	68.2	0	0	---	0.00	29.948 
00:20	73.5	73.5	73.5	83	68.0	0	0	---	0.00	29.948 
00:25	73.3	73.3	73.3	83	67.8	0	0	---	0.00	29.948 
00:30	73.3	73.3	73.3	84	68.2	0	0	---	0.00	29.948 
00:35	73.2	73.2	73.2	84	68.1	0	0	---	0.00	29.948 
00:40	73.0	73.0	73.0	84	67.9	0	0	---	0.00	29.948 
00:45	72.8	72.8	72.8	84	67.7	0	0	---	0.00	29.943 
00:50	72.7	72.7	72.7	84	67.6	0	0	---	0.00	29.943 
00:55	72.5	72.5	72.5	85	67.7	0	0	---	0.00	29.943 
01:00	72.5	72.5	72.5	85	67.7	0	0	---	0.00	29.934 
01:05	72.3	72.3	72.3	86	67.9	0	0	---	0.00	29.934 
01:10	72.3	72.3	72.3	86	67.9	0	0	---	0.00	29.934 
01:15	72.3	72.3	72.3	86	67.9	0	0	---	0.00	29.932 
01:20	72.3	72.3	72.3	86	67.9	0	0	---	0.00	29.932 
01:25	72.3	72.3	72.3	87	68.2	0	0	---	0.00	29.932 
01:30	72.3	72.3	72.3	87	68.2	0	0	---	0.00	29.932 
01:35	72.5	72.5	72.5	87	68.4	0	0	---	0.00	29.932 
01:40	72.7	72.7	72.7	87	68.6	0	0	---	0.00	29.932 
01:45	72.8	72.8	72.8	86	68.4	0	1	315	0.00	29.930 
01:50	73.0	73.0	73.0	86	68.6	0	0	---	0.00	29.930 
01:55	73.2	73.2	73.2	86	68.7	0	1	315	0.00	29.930 
02:00	73.3	73.3	73.3	85	68.5	0	1	315	0.00	29.932 
02:05	73.5	73.5	73.5	85	68.7	0	1	315	0.00	29.932 
02:10	73.7	73.7	73.7	84	68.6	0	2	315	0.00	29.932 
02:15	73.9	73.9	73.9	84	68.7	0	1	315	0.00	29.933 
02:20	74.0	74.0	74.0	84	68.8	1	4	248	0.00	29.933 
02:25	73.5	73.5	73.5	85	68.7	1	4	292	0.06	29.933 
02:30	72.7	72.7	72.7	86	68.3	1	3	292	0.01	29.929 
02:35	72.1	72.1	72.1	88	68.3	0	2	292	0.01	29.929 
02:40	71.8	71.8	71.8	88	68.0	0	2	292	0.01	29.929 
02:45	71.5	71.5	71.5	89	68.1	1	2	292	0.00	29.940 
02:50	71.1	71.1	71.1	90	68.0	1	2	292	0.00	29.940 
02:55	70.9	70.9	70.9	90	67.8	1	3	292	0.00	29.940 
03:00	70.8	70.8	70.8	90	67.7	1	3	292	0.00	29.948 
03:05	70.8	70.8	70.8	91	68.0	1	3	292	0.00	29.948 
03:10	70.8	70.8	70.8	91	68.0	1	3	270	0.00	29.948 
03:15	70.6	70.6	70.6	91	67.8	1	3	270	0.01	29.934 
03:20	70.6	70.6	70.6	91	67.8	1	4	270	0.01	29.934 
03:25	70.4	70.4	70.4	92	68.0	1	5	292	0.02	29.934 
03:30	70.3	70.3	70.3	92	67.9	1	2	292	0.02	29.929 
03:35	70.3	70.3	70.3	92	67.9	1	3	270	0.01	29.929 
03:40	70.1	70.1	70.1	92	67.7	1	3	270	0.01	29.929 
03:45	69.9	69.9	69.9	92	67.5	1	2	270	0.00	29.921 
03:50	69.9	69.9	69.9	92	67.5	1	3	270	0.01	29.921 
03:55	69.9	69.9	69.9	93	67.8	0	2	270	0.01	29.921 
04:00	69.8	69.8	69.8	93	67.7	1	3	270	0.00	29.922 
04:05	69.8	69.8	69.8	93	67.7	1	2	270	0.00	29.922 
04:10	69.8	69.8	69.8	93	67.7	0	1	270	0.01	29.922 
04:15	69.8	69.8	69.8	93	67.7	1	3	270	0.01	29.921 
04:20	69.6	69.6	69.6	93	67.5	1	2	270	0.01	29.921 
04:25	69.6	69.6	69.6	94	67.8	1	4	292	0.02	29.921 
04:30	69.6	69.6	69.6	94	67.8	1	3	292	0.01	29.916 
04:35	69.6	69.6	69.6	94	67.8	1	4	292	0.02	29.916 
04:40	69.6	69.6	69.6	94	67.8	1	3	292	0.01	29.916 
04:45	69.6	69.6	69.6	94	67.8	0	2	292	0.01	29.904 
04:50	69.6	69.6	69.6	94	67.8	0	2	292	0.02	29.904 
04:55	69.4	69.4	69.4	94	67.6	0	2	292	0.01	29.904 
05:00	69.6	69.6	69.6	94	67.8	0	1	292	0.01	29.905 
05:05	69.6	69.6	69.6	94	67.8	0	1	292	0.00	29.905 
05:10	69.6	69.6	69.6	94	67.8	0	0	---	0.00	29.905 
05:15	69.6	69.6	69.6	94	67.8	0	1	292	0.00	29.903 
05:20	69.6	69.6	69.6	95	68.1	0	1	292	0.00	29.903 
05:25	69.6	69.6	69.6	95	68.1	0	1	292	0.00	29.903 
05:30	69.8	69.8	69.8	95	68.3	0	1	292	0.00	29.904 
05:35	69.8	69.8	69.8	95	68.3	0	2	315	0.01	29.904 
05:40	69.8	69.8	69.8	95	68.3	0	1	315	0.00	29.904 
05:45	69.8	69.8	69.8	95	68.3	0	1	315	0.00	29.902 
05:50	69.8	69.8	69.8	95	68.3	0	1	315	0.00	29.902 
05:55	69.8	69.8	69.8	95	68.3	0	1	315	0.00	29.902 
06:00	69.8	69.8	69.8	95	68.3	0	1	315	0.00	29.905 
06:05	69.8	69.8	69.8	95	68.3	0	1	315	0.00	29.905 
06:10	69.8	69.8	69.8	95	68.3	0	1	315	0.00	29.905 
06:15	69.8	69.8	69.8	95	68.3	0	1	315	0.00	29.905 
06:20	69.8	69.8	69.8	95	68.3	0	1	315	0.00	29.905 
06:25	69.8	69.8	69.8	95	68.3	0	1	315	0.00	29.905 
06:30	69.8	69.8	69.8	95	68.3	0	1	315	0.00	29.911 
06:35	69.8	69.8	69.8	95	68.3	0	1	315	0.00	29.911 
06:40	69.8	69.8	69.8	95	68.3	0	1	315	0.00	29.911 
06:45	69.8	69.8	69.8	95	68.3	0	1	315	0.00	29.915 
06:50	69.8	69.8	69.8	95	68.3	0	2	315	0.00	29.915 
06:55	69.8	69.8	69.8	95	68.3	0	2	315	0.00	29.915 
07:00	69.8	69.8	69.8	95	68.3	0	1	315	0.00	29.917 
07:05	69.8	69.8	69.8	95	68.3	0	1	315	0.00	29.917 
07:10	69.8	69.8	69.8	96	68.6	0	1	315	0.00	29.917 
07:15	69.8	69.8	69.8	96	68.6	0	1	315	0.00	29.918 
07:20	69.8	69.8	69.8	96	68.6	0	1	315	0.00	29.918 
07:25	69.8	69.8	69.8	96	68.6	0	1	315	0.00	29.918 
07:30	69.8	69.8	69.8	96	68.6	0	1	315	0.00	29.915 
07:35	69.8	69.8	69.8	96	68.6	0	1	315	0.00	29.915 
07:40	69.8	69.8	69.8	96	68.6	0	2	315	0.00	29.915 
07:45	69.8	69.8	69.8	96	68.6	0	1	315	0.00	29.918 
07:50	69.8	69.8	69.8	96	68.6	0	1	315	0.00	29.918 
07:55	69.8	69.8	69.8	96	68.6	0	2	315	0.00	29.918 
08:00	69.8	69.8	69.8	96	68.6	0	1	315	0.00	29.921 
08:05	69.8	69.8	69.8	96	68.6	0	0	---	0.00	29.921 
08:10	69.8	69.8	69.8	96	68.6	0	1	315	0.00	29.921 
08:15	69.8	69.8	69.8	96	68.6	0	1	315	0.00	29.926 
08:20	69.8	69.8	69.8	96	68.6	0	1	315	0.00	29.926 
08:25	69.8	69.8	69.8	96	68.6	0	1	315	0.00	29.926 
08:30	69.8	69.8	69.8	96	68.6	0	1	315	0.00	29.921 
08:35	69.8	69.8	69.8	96	68.6	0	1	315	0.00	29.921 
08:40	69.8	69.8	69.8	96	68.6	0	1	315	0.00	29.921 
08:45	69.8	69.8	69.8	96	68.6	0	1	315	0.00	29.916 
08:50	69.6	69.6	69.6	96	68.4	0	1	315	0.00	29.916 
08:55	69.6	69.6	69.6	96	68.4	0	1	315	0.00	29.916 
09:00	69.6	69.6	69.6	96	68.4	0	1	315	0.00	29.915 
09:05	69.6	69.6	69.6	96	68.4	0	2	315	0.00	29.915 
09:10	69.6	69.6	69.6	96	68.4	0	1	315	0.00	29.915 
09:15	69.8	69.8	69.8	96	68.6	0	2	315	0.00	29.916 
09:20	69.6	69.6	69.6	96	68.4	0	3	292	0.00	29.916 
09:25	69.6	69.6	69.6	96	68.4	1	3	292	0.00	29.916 
09:30	69.6	69.6	69.6	96	68.4	1	3	292	0.00	29.916 
09:35	69.6	69.6	69.6	96	68.4	1	3	270	0.00	29.916 
09:40	69.6	69.6	69.6	96	68.4	1	3	270	0.00	29.916 
09:45	69.8	69.8	69.8	96	68.6	1	3	270	0.00	29.917 
09:50	69.8	69.8	69.8	95	68.3	0	2	270	0.00	29.917 
09:55	69.9	69.9	69.9	95	68.4	0	2	270	0.00	29.917 
10:00	69.9	69.9	69.9	95	68.4	0	2	270	0.00	29.919 
10:05	69.9	69.9	69.9	95	68.4	1	3	270	0.00	29.919 
10:10	70.1	70.1	70.1	95	68.6	1	4	270	0.00	29.919 
10:15	70.3	70.3	70.3	95	68.8	0	2	270	0.00	29.927 
10:20	70.3	70.3	70.3	95	68.8	0	2	270	0.00	29.927 
10:25	70.3	70.3	70.3	95	68.8	1	4	270	0.00	29.927 
10:30	70.6	70.6	70.6	94	68.8	1	2	270	0.00	29.924 
10:35	70.8	70.8	70.8	94	69.0	1	2	270	0.00	29.924 
10:40	70.8	70.8	70.8	93	68.7	1	3	292	0.00	29.924 
10:45	70.8	70.8	70.8	93	68.7	1	3	292	0.00	29.928 
10:50	71.1	71.1	71.1	92	68.7	0	2	315	0.00	29.928 
10:55	71.1	71.1	71.1	92	68.7	1	4	315	0.00	29.928 
11:00	71.3	71.3	71.3	91	68.5	1	3	315	0.00	29.931 
11:05	71.3	71.3	71.3	90	68.2	0	2	315	0.00	29.931 
11:10	71.5	71.5	71.5	89	68.1	0	2	315	0.00	29.931 
11:15	71.5	71.5	71.5	88	67.7	1	3	315	0.00	29.930 
11:20	71.6	71.6	71.6	87	67.5	1	3	315	0.00	29.930 
11:25	71.6	71.6	71.6	86	67.2	1	3	270	0.00	29.930 
11:30	72.0	72.0	72.0	85	67.2	1	3	270	0.00	29.925 
11:35	72.1	72.1	72.1	84	67.0	1	3	270	0.00	29.925 
11:40	72.1	72.1	72.1	84	67.0	1	3	315	0.00	29.925 
11:45	72.3	72.3	72.3	83	66.8	1	3	315	0.00	29.931 
11:50	72.7	72.7	72.7	83	67.2	1	3	315	0.00	29.931 
11:55	73.2	73.2	73.2	81	67.0	1	4	315	0.00	29.931 
12:00	73.2	73.2	73.2	79	66.3	1	4	292	0.00	29.934 
12:05	73.2	73.2	73.2	78	65.9	1	4	292	0.00	29.934 
12:10	73.2	73.2	73.2	77	65.5	1	5	315	0.00	29.934 
12:15	73.2	73.2	73.2	76	65.2	1	4	270	0.00	29.933 
12:20	73.3	73.3	73.3	75	64.9	1	4	270	0.00	29.933 
12:25	73.3	73.3	73.3	72	63.7	1	5	270	0.00	29.933 
12:30	73.5	73.5	73.5	73	64.3	1	3	292	0.00	29.935 
12:35	73.7	73.7	73.7	69	62.9	2	4	315	0.00	29.935 
12:40	73.9	73.9	73.9	68	62.7	1	4	315	0.00	29.935 
12:45	74.2	74.2	74.2	66	62.1	1	4	292	0.00	29.935 
12:50	74.4	74.4	74.4	63	61.0	1	5	292	0.00	29.935 
12:55	74.7	74.7	74.7	63	61.2	2	4	292	0.00	29.935 
13:00	75.1	75.1	77.5	59	59.8	2	4	315	0.00	29.930 
13:05	75.3	75.3	77.6	59	60.0	1	4	315	0.00	29.930 
13:10	75.3	75.3	77.6	58	59.5	1	5	270	0.00	29.930 
13:15	75.4	75.4	77.6	59	60.1	1	3	270	0.00	29.925 
13:20	76.0	76.0	78.1	57	59.6	1	4	270	0.00	29.925 
13:25	76.3	76.3	78.3	54	58.4	2	5	270	0.00	29.925 
13:30	76.8	76.8	78.6	54	58.9	1	3	292	0.00	29.916 
13:35	77.2	77.2	78.7	49	56.5	1	3	292	0.00	29.916 
13:40	77.6	77.6	78.9	49	56.9	1	4	292	0.00	29.916 
13:45	77.9	77.9	78.9	44	54.2	1	3	292	0.00	29.915 
13:50	78.5	78.5	79.5	49	57.7	1	4	292	0.00	29.915 
13:55	78.5	78.5	79.3	45	55.4	2	5	315	0.00	29.915 
14:00	78.8	78.8	79.5	45	55.6	1	4	338	0.00	29.912 
14:05	79.0	79.0	79.5	43	54.6	1	5	292	0.00	29.912 
14:10	79.2	79.2	79.6	43	54.7	1	5	292	0.00	29.912 
14:15	79.6	79.6	79.8	42	54.5	1	4	315	0.00	29.901 
14:20	79.8	79.8	79.8	40	53.3	1	3	315	0.00	29.901 
14:25	80.5	80.5	80.6	43	55.9	0	1	315	0.00	29.901 
14:30	80.9	80.9	80.5	39	53.6	1	3	315	0.00	29.889 
14:35	80.9	80.9	80.4	38	52.9	1	4	315	0.00	29.889 
14:40	80.9	80.9	80.5	39	53.6	1	3	315	0.00	29.889 
14:45	80.7	80.7	80.2	38	52.7	1	4	315	0.00	29.881 
14:50	81.1	81.1	80.8	41	55.1	0	1	315	0.00	29.881 
14:55	81.4	81.4	81.0	40	54.7	1	3	315	0.00	29.881 
15:00	81.6	81.6	80.7	36	52.0	1	3	315	0.00	29.874 
15:05	81.6	81.6	80.6	35	51.3	1	4	315	0.00	29.874 
15:10	81.4	81.4	80.6	36	51.9	2	4	315	0.00	29.874 
15:15	81.2	81.2	80.4	36	51.7	1	3	315	0.00	29.869 
15:20	81.4	81.4	80.5	35	51.1	1	3	315	0.00	29.869 
15:25	81.8	81.8	80.7	34	50.7	1	3	292	0.00	29.869 
15:30	82.0	82.0	80.7	32	49.2	1	5	270	0.00	29.862 
15:35	82.4	82.4	81.0	33	50.4	1	3	270	0.00	29.862 
15:40	82.4	82.4	81.0	33	50.4	1	3	270	0.00	29.862 
15:45	82.6	82.6	81.3	34	51.4	1	3	270	0.00	29.852 
15:50	83.0	83.0	81.5	33	50.9	1	4	292	0.00	29.852 
15:55	82.6	82.6	81.1	32	49.7	3	9	292	0.00	29.852 
16:00	82.8	82.8	81.2	32	49.9	2	3	270	0.00	29.844 
16:05	82.6	82.6	81.1	32	49.7	1	2	292	0.00	29.844 
16:10	82.4	82.4	81.0	33	50.4	2	5	292	0.00	29.844 
16:15	82.4	82.4	80.9	32	49.5	2	6	315	0.00	29.843 
16:20	82.4	82.4	81.1	34	51.2	1	9	315	0.00	29.843 
16:25	82.0	82.0	80.7	32	49.2	3	8	270	0.00	29.843 
16:30	81.6	81.6	80.4	32	48.9	1	5	270	0.00	29.836 
16:35	81.6	81.6	80.5	34	50.5	2	5	292	0.00	29.836 
16:40	81.6	81.6	80.5	34	50.5	3	5	270	0.00	29.836 
16:45	81.1	81.1	80.2	34	50.0	1	3	270	0.00	29.835 
16:50	80.7	80.7	80.0	35	50.5	2	5	270	0.00	29.835 
16:55	80.5	80.5	79.9	35	50.3	1	4	270	0.00	29.835 
17:00	80.3	80.3	79.8	36	50.9	1	3	270	0.00	29.824 
17:05	79.9	79.9	79.6	37	51.3	1	3	292	0.00	29.824 
17:10	79.6	79.6	79.4	37	51.0	1	4	292	0.00	29.824 
17:15	79.4	79.4	79.4	38	51.6	1	2	292	0.00	29.811 
17:20	79.4	79.4	79.5	39	52.3	0	1	338	0.00	29.811 
17:25	79.0	79.0	79.2	39	51.9	0	2	338	0.00	29.811 
17:30	78.8	78.8	79.2	40	52.4	0	1	338	0.00	29.811 
17:35	78.5	78.5	79.4	46	56.0	0	3	338	0.00	29.811 
17:40	76.5	76.5	78.4	58	60.6	1	2	338	0.03	29.811 
17:45	72.8	72.8	72.8	65	60.3	2	5	270	0.04	29.841 
17:50	69.9	69.9	69.9	70	59.7	1	4	292	0.01	29.841 
17:55	68.3	68.3	68.3	75	60.1	1	5	292	0.03	29.841 
18:00	67.4	67.4	67.4	80	61.0	0	2	270	0.02	29.852 
18:05	66.8	66.8	66.8	82	61.1	1	5	292	0.00	29.852 
18:10	66.4	66.4	66.4	83	61.1	1	4	292	0.00	29.852 
18:15	66.3	66.3	66.3	84	61.3	0	1	338	0.00	29.848 
18:20	66.0	66.0	66.0	84	61.0	0	2	338	0.00	29.848 
18:25	66.0	66.0	66.0	85	61.4	0	1	315	0.00	29.848 
18:30	66.0	66.0	66.0	86	61.7	0	1	315	0.00	29.859 
18:35	65.8	65.8	65.8	85	61.2	0	1	315	0.00	29.859 
18:40	65.8	65.8	65.8	85	61.2	0	1	315	0.00	29.859 
18:45	65.6	65.6	65.6	85	61.0	0	0	---	0.00	29.848 
18:50	65.6	65.6	65.6	86	61.3	0	0	---	0.00	29.848 
18:55	65.6	65.6	65.6	86	61.3	0	0	---	0.00	29.848 
19:00	65.8	65.8	65.8	87	61.8	0	0	---	0.00	29.851 
19:05	65.8	65.8	65.8	88	62.1	0	0	---	0.00	29.851 
19:10	66.1	66.1	66.1	88	62.4	0	0	---	0.00	29.851 
19:15	66.3	66.3	66.3	89	63.0	0	0	---	0.00	29.854 
19:20	66.1	66.1	66.1	89	62.8	0	0	---	0.00	29.854 
19:25	66.1	66.1	66.1	89	62.8	0	0	---	0.00	29.854 
19:30	66.1	66.1	66.1	89	62.8	0	1	315	0.00	29.862 
19:35	66.1	66.1	66.1	88	62.4	0	0	---	0.00	29.862 
19:40	66.0	66.0	66.0	88	62.3	0	0	---	0.00	29.862 
19:45	65.8	65.8	65.8	88	62.1	0	0	---	0.00	29.863 
19:50	65.6	65.6	65.6	88	61.9	0	0	---	0.00	29.863 
19:55	65.6	65.6	65.6	88	61.9	0	1	315	0.00	29.863 
20:00	65.6	65.6	65.6	88	61.9	0	1	315	0.00	29.867 
20:05	65.6	65.6	65.6	87	61.6	0	1	315	0.00	29.867 
20:10	65.6	65.6	65.6	86	61.3	0	1	315	0.00	29.867 
20:15	65.8	65.8	65.8	86	61.5	0	1	315	0.00	29.875 
20:20	65.8	65.8	65.8	85	61.2	0	1	315	0.00	29.875 
20:25	65.8	65.8	65.8	85	61.2	0	1	315	0.00	29.875 
20:30	65.8	65.8	65.8	84	60.8	0	0	---	0.00	29.886 
20:35	65.8	65.8	65.8	84	60.8	0	1	315	0.00	29.886 
20:40	66.0	66.0	66.0	82	60.3	0	2	315	0.00	29.886 
20:45	66.4	66.4	66.4	79	59.7	1	4	315	0.00	29.904 
20:50	66.8	66.8	66.8	77	59.3	1	4	315	0.00	29.904 
20:55	66.8	66.8	66.8	75	58.6	1	4	315	0.00	29.904 
21:00	66.6	66.6	66.6	75	58.4	1	4	315	0.00	29.915 
21:05	66.4	66.4	66.4	74	57.9	1	7	315	0.00	29.915 
21:10	66.4	66.4	66.4	74	57.9	1	5	315	0.00	29.915 
21:15	66.3	66.3	66.3	73	57.4	1	4	315	0.00	29.924 
21:20	66.1	66.1	66.1	73	57.2	0	2	270	0.00	29.924 
21:25	66.0	66.0	66.0	73	57.1	0	2	292	0.00	29.924 
21:30	65.8	65.8	65.8	73	56.9	0	1	292	0.00	29.929 
21:35	65.5	65.5	65.5	73	56.6	1	5	292	0.00	29.929 
21:40	65.3	65.3	65.3	73	56.4	0	4	270	0.00	29.929 
21:45	65.2	65.2	65.2	74	56.7	0	3	270	0.00	29.939 
21:50	64.8	64.8	64.8	73	55.9	1	3	292	0.00	29.939 
21:55	64.7	64.7	64.7	74	56.2	0	2	292	0.00	29.939 
22:00	64.5	64.5	64.5	75	56.4	0	2	292	0.00	29.942 
22:05	64.2	64.2	64.2	75	56.1	0	1	292	0.00	29.942 
22:10	64.0	64.0	64.0	76	56.3	0	2	292	0.00	29.942 
22:15	63.9	63.9	63.9	76	56.2	0	2	292	0.00	29.942 
22:20	63.7	63.7	63.7	77	56.3	0	3	292	0.00	29.942 
22:25	63.5	63.5	63.5	77	56.2	0	3	292	0.01	29.942 
22:30	63.4	63.4	63.4	77	56.1	0	1	292	0.00	29.944 
22:35	63.2	63.2	63.2	78	56.2	0	1	292	0.00	29.944 
22:40	63.1	63.1	63.1	78	56.1	0	1	292	0.00	29.944 
22:45	63.1	63.1	63.1	79	56.5	0	0	---	0.00	29.945 
22:50	62.9	62.9	62.9	79	56.3	0	2	292	0.00	29.945 
22:55	62.7	62.7	62.7	79	56.1	0	2	292	0.00	29.945 
23:00	62.6	62.6	62.6	79	56.0	0	1	292	0.00	29.950 
23:05	62.4	62.4	62.4	80	56.1	0	1	292	0.00	29.950 
23:10	62.1	62.1	62.1	81	56.2	0	1	292	0.00	29.950 
23:15	62.0	62.0	62.0	81	56.1	0	1	292	0.00	29.957 
23:20	61.8	61.8	61.8	81	55.9	0	1	292	0.00	29.957 
23:25	61.6	61.6	61.6	82	56.0	0	1	292	0.00	29.957 
23:30	61.5	61.5	61.5	82	55.9	0	0	---	0.00	29.959 
23:35	61.3	61.3	61.3	82	55.8	0	0	---	0.00	29.959 
23:40	61.0	61.0	61.0	83	55.8	0	0	---	0.00	29.959 
23:45	60.9	60.9	60.9	83	55.7	0	0	---	0.00	29.961 
23:50	60.7	60.7	60.7	84	55.8	0	1	292	0.00	29.961 
23:55	60.7	60.7	60.7	84	55.8	0	1	292	0.00	29.961 

CoCoRaHS
IN-AL-39
A2 Web Hosting
Creative Commons License
GoDaddy
search engine by freefind advanced

loaded 2018-11-16 23:18:47 • last modified 2010-11-18 10:43:29
Privacy PolicyDisclaimer
• wx.awcolley.com is powered by PmWiki v.2002016 •
• all content (unless otherwise noted) © 2018 A W Colley